sensor_id;sensor_type;location;lat;lon;timestamp;temperature;humidity
5972;DHT22;3012;49.944;8.454;2023-07-24T00:00:32;22.00;72.60
5972;DHT22;3012;49.944;8.454;2023-07-24T00:03:03;22.00;72.90
5972;DHT22;3012;49.944;8.454;2023-07-24T00:05:34;22.00;72.80
5972;DHT22;3012;49.944;8.454;2023-07-24T00:08:06;22.00;72.90
5972;DHT22;3012;49.944;8.454;2023-07-24T00:10:39;22.40;73.60
5972;DHT22;3012;49.944;8.454;2023-07-24T00:13:10;21.90;73.50
5972;DHT22;3012;49.944;8.454;2023-07-24T00:15:41;21.90;73.50
5972;DHT22;3012;49.944;8.454;2023-07-24T00:18:12;21.90;73.70
5972;DHT22;3012;49.944;8.454;2023-07-24T00:20:44;22.00;74.00
5972;DHT22;3012;49.944;8.454;2023-07-24T00:23:15;22.00;74.30
5972;DHT22;3012;49.944;8.454;2023-07-24T00:25:49;21.90;74.10
5972;DHT22;3012;49.944;8.454;2023-07-24T00:28:20;22.20;74.80
5972;DHT22;3012;49.944;8.454;2023-07-24T00:30:51;21.80;74.30
5972;DHT22;3012;49.944;8.454;2023-07-24T00:33:22;21.60;74.20
5972;DHT22;3012;49.944;8.454;2023-07-24T00:35:56;21.80;74.80
5972;DHT22;3012;49.944;8.454;2023-07-24T00:38:28;21.80;74.70
5972;DHT22;3012;49.944;8.454;2023-07-24T00:41:00;22.00;75.00
5972;DHT22;3012;49.944;8.454;2023-07-24T00:43:31;21.80;75.20
5972;DHT22;3012;49.944;8.454;2023-07-24T00:46:02;21.80;75.00
5972;DHT22;3012;49.944;8.454;2023-07-24T00:48:33;21.90;75.10
5972;DHT22;3012;49.944;8.454;2023-07-24T00:51:04;21.90;75.30
5972;DHT22;3012;49.944;8.454;2023-07-24T00:53:35;21.80;75.30
5972;DHT22;3012;49.944;8.454;2023-07-24T00:56:08;21.80;75.30
5972;DHT22;3012;49.944;8.454;2023-07-24T00:58:40;21.80;75.40
5972;DHT22;3012;49.944;8.454;2023-07-24T01:01:11;21.80;76.00
5972;DHT22;3012;49.944;8.454;2023-07-24T01:03:41;21.90;76.00
5972;DHT22;3012;49.944;8.454;2023-07-24T01:06:13;21.70;75.90
5972;DHT22;3012;49.944;8.454;2023-07-24T01:08:44;21.70;75.90
5972;DHT22;3012;49.944;8.454;2023-07-24T01:11:19;22.00;76.50
5972;DHT22;3012;49.944;8.454;2023-07-24T01:13:57;21.70;76.50
5972;DHT22;3012;49.944;8.454;2023-07-24T01:16:37;21.70;77.00
5972;DHT22;3012;49.944;8.454;2023-07-24T01:19:16;21.60;76.70
5972;DHT22;3012;49.944;8.454;2023-07-24T01:22:01;21.60;77.00
5972;DHT22;3012;49.944;8.454;2023-07-24T01:24:37;21.60;77.50
5972;DHT22;3012;49.944;8.454;2023-07-24T01:27:21;21.60;77.50
5972;DHT22;3012;49.944;8.454;2023-07-24T01:29:53;21.60;78.20
5972;DHT22;3012;49.944;8.454;2023-07-24T01:32:24;21.50;77.70
5972;DHT22;3012;49.944;8.454;2023-07-24T01:34:55;21.50;77.90
5972;DHT22;3012;49.944;8.454;2023-07-24T01:37:26;21.50;78.40
5972;DHT22;3012;49.944;8.454;2023-07-24T01:39:57;21.50;78.30
5972;DHT22;3012;49.944;8.454;2023-07-24T01:42:30;21.60;78.40
5972;DHT22;3012;49.944;8.454;2023-07-24T01:45:03;21.50;78.40
5972;DHT22;3012;49.944;8.454;2023-07-24T01:47:34;21.50;79.10
5972;DHT22;3012;49.944;8.454;2023-07-24T01:50:06;21.40;79.20
5972;DHT22;3012;49.944;8.454;2023-07-24T01:52:36;21.30;79.80
5972;DHT22;3012;49.944;8.454;2023-07-24T01:55:07;21.30;79.50
5972;DHT22;3012;49.944;8.454;2023-07-24T01:57:41;21.30;79.80
5972;DHT22;3012;49.944;8.454;2023-07-24T02:00:12;21.20;80.00
5972;DHT22;3012;49.944;8.454;2023-07-24T02:02:43;21.50;80.60
5972;DHT22;3012;49.944;8.454;2023-07-24T02:05:14;21.30;80.20
5972;DHT22;3012;49.944;8.454;2023-07-24T02:07:44;21.30;80.20
5972;DHT22;3012;49.944;8.454;2023-07-24T02:10:15;21.20;80.00
5972;DHT22;3012;49.944;8.454;2023-07-24T02:12:48;21.20;80.30
5972;DHT22;3012;49.944;8.454;2023-07-24T02:15:20;21.10;80.10
5972;DHT22;3012;49.944;8.454;2023-07-24T02:17:51;21.20;80.40
5972;DHT22;3012;49.944;8.454;2023-07-24T02:20:22;21.10;80.50
5972;DHT22;3012;49.944;8.454;2023-07-24T02:22:53;21.10;81.00
5972;DHT22;3012;49.944;8.454;2023-07-24T02:25:24;21.20;81.20
5972;DHT22;3012;49.944;8.454;2023-07-24T02:27:56;21.10;81.30
5972;DHT22;3012;49.944;8.454;2023-07-24T02:30:27;21.20;81.30
5972;DHT22;3012;49.944;8.454;2023-07-24T02:32:57;21.20;81.30
5972;DHT22;3012;49.944;8.454;2023-07-24T02:35:28;21.20;81.10
5972;DHT22;3012;49.944;8.454;2023-07-24T02:37:58;21.10;80.60
5972;DHT22;3012;49.944;8.454;2023-07-24T02:40:30;21.00;80.20
5972;DHT22;3012;49.944;8.454;2023-07-24T02:43:03;21.00;80.30
5972;DHT22;3012;49.944;8.454;2023-07-24T02:45:34;20.90;80.20
5972;DHT22;3012;49.944;8.454;2023-07-24T02:48:05;20.90;80.50
5972;DHT22;3012;49.944;8.454;2023-07-24T02:50:37;20.80;80.80
5972;DHT22;3012;49.944;8.454;2023-07-24T02:53:07;20.80;80.70
5972;DHT22;3012;49.944;8.454;2023-07-24T02:55:41;20.80;80.80
5972;DHT22;3012;49.944;8.454;2023-07-24T02:58:14;20.80;80.80
5972;DHT22;3012;49.944;8.454;2023-07-24T03:00:45;20.70;81.30
5972;DHT22;3012;49.944;8.454;2023-07-24T03:03:16;21.00;81.00
5972;DHT22;3012;49.944;8.454;2023-07-24T03:05:47;20.70;80.60
5972;DHT22;3012;49.944;8.454;2023-07-24T03:08:18;20.60;81.00
5972;DHT22;3012;49.944;8.454;2023-07-24T03:10:48;20.60;81.00
5972;DHT22;3012;49.944;8.454;2023-07-24T03:13:21;20.50;81.20
5972;DHT22;3012;49.944;8.454;2023-07-24T03:15:55;20.50;81.50
5972;DHT22;3012;49.944;8.454;2023-07-24T03:18:25;20.70;81.90
5972;DHT22;3012;49.944;8.454;2023-07-24T03:20:58;20.50;82.10
5972;DHT22;3012;49.944;8.454;2023-07-24T03:23:29;20.40;82.30
5972;DHT22;3012;49.944;8.454;2023-07-24T03:25:59;20.40;82.50
5972;DHT22;3012;49.944;8.454;2023-07-24T03:28:33;20.40;82.70
5972;DHT22;3012;49.944;8.454;2023-07-24T03:31:03;20.30;82.60
5972;DHT22;3012;49.944;8.454;2023-07-24T03:33:35;20.30;84.00
5972;DHT22;3012;49.944;8.454;2023-07-24T03:36:06;20.30;83.30
5972;DHT22;3012;49.944;8.454;2023-07-24T03:38:36;20.30;83.20
5972;DHT22;3012;49.944;8.454;2023-07-24T03:41:06;20.30;83.70
5972;DHT22;3012;49.944;8.454;2023-07-24T03:43:39;20.30;83.40
5972;DHT22;3012;49.944;8.454;2023-07-24T03:46:10;20.40;83.50
5972;DHT22;3012;49.944;8.454;2023-07-24T03:48:40;20.30;83.80
5972;DHT22;3012;49.944;8.454;2023-07-24T03:51:10;20.20;83.60
5972;DHT22;3012;49.944;8.454;2023-07-24T03:53:41;20.10;83.70
5972;DHT22;3012;49.944;8.454;2023-07-24T03:56:12;20.10;83.60
5972;DHT22;3012;49.944;8.454;2023-07-24T03:58:45;20.30;83.90
5972;DHT22;3012;49.944;8.454;2023-07-24T04:01:16;20.00;83.80
5972;DHT22;3012;49.944;8.454;2023-07-24T04:03:49;20.10;84.50
5972;DHT22;3012;49.944;8.454;2023-07-24T04:06:20;20.20;84.40
5972;DHT22;3012;49.944;8.454;2023-07-24T04:08:54;20.20;84.80
5972;DHT22;3012;49.944;8.454;2023-07-24T04:11:24;20.20;84.60
5972;DHT22;3012;49.944;8.454;2023-07-24T04:13:56;20.10;85.00
5972;DHT22;3012;49.944;8.454;2023-07-24T04:16:28;20.20;84.90
5972;DHT22;3012;49.944;8.454;2023-07-24T04:19:01;20.40;85.20
5972;DHT22;3012;49.944;8.454;2023-07-24T04:21:35;20.20;85.20
5972;DHT22;3012;49.944;8.454;2023-07-24T04:24:15;20.20;86.30
5972;DHT22;3012;49.944;8.454;2023-07-24T04:26:49;20.40;85.80
5972;DHT22;3012;49.944;8.454;2023-07-24T04:29:26;20.20;85.50
5972;DHT22;3012;49.944;8.454;2023-07-24T04:32:00;20.20;85.60
5972;DHT22;3012;49.944;8.454;2023-07-24T04:34:32;20.40;86.20
5972;DHT22;3012;49.944;8.454;2023-07-24T04:37:06;20.30;86.30
5972;DHT22;3012;49.944;8.454;2023-07-24T04:39:40;20.10;85.70
5972;DHT22;3012;49.944;8.454;2023-07-24T04:42:14;20.30;85.90
5972;DHT22;3012;49.944;8.454;2023-07-24T04:44:51;20.30;86.70
5972;DHT22;3012;49.944;8.454;2023-07-24T04:47:22;20.30;86.30
5972;DHT22;3012;49.944;8.454;2023-07-24T04:49:58;20.30;87.40
5972;DHT22;3012;49.944;8.454;2023-07-24T04:52:29;20.20;87.80
5972;DHT22;3012;49.944;8.454;2023-07-24T04:55:01;20.20;87.40
5972;DHT22;3012;49.944;8.454;2023-07-24T04:57:32;20.30;87.70
5972;DHT22;3012;49.944;8.454;2023-07-24T05:00:07;20.20;87.90
5972;DHT22;3012;49.944;8.454;2023-07-24T05:02:42;20.30;88.00
5972;DHT22;3012;49.944;8.454;2023-07-24T05:05:15;20.70;88.90
5972;DHT22;3012;49.944;8.454;2023-07-24T05:07:48;20.30;88.20
5972;DHT22;3012;49.944;8.454;2023-07-24T05:10:21;20.30;88.00
5972;DHT22;3012;49.944;8.454;2023-07-24T05:12:57;20.40;88.60
5972;DHT22;3012;49.944;8.454;2023-07-24T05:15:32;20.40;88.50
5972;DHT22;3012;49.944;8.454;2023-07-24T05:18:03;20.30;88.40
5972;DHT22;3012;49.944;8.454;2023-07-24T05:20:34;20.40;88.50
5972;DHT22;3012;49.944;8.454;2023-07-24T05:23:06;20.40;88.50
5972;DHT22;3012;49.944;8.454;2023-07-24T05:25:38;21.00;89.70
5972;DHT22;3012;49.944;8.454;2023-07-24T05:28:09;20.30;88.60
5972;DHT22;3012;49.944;8.454;2023-07-24T05:30:42;20.50;89.60
5972;DHT22;3012;49.944;8.454;2023-07-24T05:33:13;20.40;90.00
5972;DHT22;3012;49.944;8.454;2023-07-24T05:35:47;20.40;90.00
5972;DHT22;3012;49.944;8.454;2023-07-24T05:38:19;20.50;90.10
5972;DHT22;3012;49.944;8.454;2023-07-24T05:40:54;20.70;90.20
5972;DHT22;3012;49.944;8.454;2023-07-24T05:43:25;20.50;90.50
5972;DHT22;3012;49.944;8.454;2023-07-24T05:45:57;20.50;90.40
5972;DHT22;3012;49.944;8.454;2023-07-24T05:48:28;20.80;90.60
5972;DHT22;3012;49.944;8.454;2023-07-24T05:51:03;20.50;90.60
5972;DHT22;3012;49.944;8.454;2023-07-24T05:53:37;20.60;91.00
5972;DHT22;3012;49.944;8.454;2023-07-24T05:56:12;20.70;90.70
5972;DHT22;3012;49.944;8.454;2023-07-24T05:58:44;21.10;90.90
5972;DHT22;3012;49.944;8.454;2023-07-24T06:01:18;20.70;90.90
5972;DHT22;3012;49.944;8.454;2023-07-24T06:03:50;20.80;90.80
5972;DHT22;3012;49.944;8.454;2023-07-24T06:06:22;20.80;90.70
5972;DHT22;3012;49.944;8.454;2023-07-24T06:09:00;20.80;90.60
5972;DHT22;3012;49.944;8.454;2023-07-24T06:11:34;20.70;90.80
5972;DHT22;3012;49.944;8.454;2023-07-24T06:14:09;20.90;90.80
5972;DHT22;3012;49.944;8.454;2023-07-24T06:16:43;21.10;90.90
5972;DHT22;3012;49.944;8.454;2023-07-24T06:19:16;20.90;91.00
5972;DHT22;3012;49.944;8.454;2023-07-24T06:21:49;20.90;90.60
5972;DHT22;3012;49.944;8.454;2023-07-24T06:24:20;20.90;90.70
5972;DHT22;3012;49.944;8.454;2023-07-24T06:26:52;21.10;90.40
5972;DHT22;3012;49.944;8.454;2023-07-24T06:29:25;21.10;90.40
5972;DHT22;3012;49.944;8.454;2023-07-24T06:32:00;21.10;90.50
5972;DHT22;3012;49.944;8.454;2023-07-24T06:34:32;21.20;90.60
5972;DHT22;3012;49.944;8.454;2023-07-24T06:37:05;21.20;90.60
5972;DHT22;3012;49.944;8.454;2023-07-24T06:39:50;21.40;90.80
5972;DHT22;3012;49.944;8.454;2023-07-24T06:42:23;21.30;90.60
5972;DHT22;3012;49.944;8.454;2023-07-24T06:44:53;21.40;90.60
5972;DHT22;3012;49.944;8.454;2023-07-24T06:47:25;21.40;90.40
5972;DHT22;3012;49.944;8.454;2023-07-24T06:49:56;21.60;90.60
5972;DHT22;3012;49.944;8.454;2023-07-24T06:52:27;21.30;90.60
5972;DHT22;3012;49.944;8.454;2023-07-24T06:54:58;21.90;91.20
5972;DHT22;3012;49.944;8.454;2023-07-24T06:57:29;21.60;90.70
5972;DHT22;3012;49.944;8.454;2023-07-24T07:00:00;21.80;90.60
5972;DHT22;3012;49.944;8.454;2023-07-24T07:02:33;21.60;90.60
5972;DHT22;3012;49.944;8.454;2023-07-24T07:05:04;21.80;90.60
5972;DHT22;3012;49.944;8.454;2023-07-24T07:07:37;21.60;90.50
5972;DHT22;3012;49.944;8.454;2023-07-24T07:10:13;21.60;90.70
5972;DHT22;3012;49.944;8.454;2023-07-24T07:12:45;21.80;91.00
5972;DHT22;3012;49.944;8.454;2023-07-24T07:15:16;21.40;90.40
5972;DHT22;3012;49.944;8.454;2023-07-24T07:17:50;21.80;90.50
5972;DHT22;3012;49.944;8.454;2023-07-24T07:20:22;22.00;90.10
5972;DHT22;3012;49.944;8.454;2023-07-24T07:22:55;22.00;89.30
5972;DHT22;3012;49.944;8.454;2023-07-24T07:25:26;22.00;89.60
5972;DHT22;3012;49.944;8.454;2023-07-24T07:27:58;22.10;89.60
5972;DHT22;3012;49.944;8.454;2023-07-24T07:30:29;22.10;89.30
5972;DHT22;3012;49.944;8.454;2023-07-24T07:33:02;22.20;89.10
5972;DHT22;3012;49.944;8.454;2023-07-24T07:35:35;22.50;89.40
5972;DHT22;3012;49.944;8.454;2023-07-24T07:38:07;22.30;88.30
5972;DHT22;3012;49.944;8.454;2023-07-24T07:40:38;22.40;88.20
5972;DHT22;3012;49.944;8.454;2023-07-24T07:43:09;22.40;88.20
5972;DHT22;3012;49.944;8.454;2023-07-24T07:45:40;22.40;88.50
5972;DHT22;3012;49.944;8.454;2023-07-24T07:48:11;22.40;88.60
5972;DHT22;3012;49.944;8.454;2023-07-24T07:50:43;23.00;89.20
5972;DHT22;3012;49.944;8.454;2023-07-24T07:53:14;22.40;89.00
5972;DHT22;3012;49.944;8.454;2023-07-24T07:55:45;22.40;88.90
5972;DHT22;3012;49.944;8.454;2023-07-24T07:58:16;22.40;89.20
5972;DHT22;3012;49.944;8.454;2023-07-24T08:00:47;22.40;89.30
5972;DHT22;3012;49.944;8.454;2023-07-24T08:03:20;22.40;89.30
5972;DHT22;3012;49.944;8.454;2023-07-24T08:05:51;22.40;89.10
5972;DHT22;3012;49.944;8.454;2023-07-24T08:08:22;22.40;88.80
5972;DHT22;3012;49.944;8.454;2023-07-24T08:10:55;22.40;89.20
5972;DHT22;3012;49.944;8.454;2023-07-24T08:13:26;22.40;89.30
5972;DHT22;3012;49.944;8.454;2023-07-24T08:16:00;22.40;89.40
5972;DHT22;3012;49.944;8.454;2023-07-24T08:18:39;22.50;89.20
5972;DHT22;3012;49.944;8.454;2023-07-24T08:21:14;22.60;88.40
5972;DHT22;3012;49.944;8.454;2023-07-24T08:23:57;22.70;87.70
5972;DHT22;3012;49.944;8.454;2023-07-24T08:26:35;22.80;88.00
5972;DHT22;3012;49.944;8.454;2023-07-24T08:29:07;22.90;87.50
5972;DHT22;3012;49.944;8.454;2023-07-24T08:31:39;22.90;87.10
5972;DHT22;3012;49.944;8.454;2023-07-24T08:34:14;22.90;88.00
5972;DHT22;3012;49.944;8.454;2023-07-24T08:36:45;22.90;88.20
5972;DHT22;3012;49.944;8.454;2023-07-24T08:39:18;22.90;87.10
5972;DHT22;3012;49.944;8.454;2023-07-24T08:41:49;22.90;87.60
5972;DHT22;3012;49.944;8.454;2023-07-24T08:44:21;22.90;87.80
5972;DHT22;3012;49.944;8.454;2023-07-24T08:46:55;23.00;87.60
5972;DHT22;3012;49.944;8.454;2023-07-24T08:49:31;23.00;88.10
5972;DHT22;3012;49.944;8.454;2023-07-24T08:52:09;23.10;88.50
5972;DHT22;3012;49.944;8.454;2023-07-24T08:55:03;23.20;88.90
5972;DHT22;3012;49.944;8.454;2023-07-24T08:57:37;23.40;87.90
5972;DHT22;3012;49.944;8.454;2023-07-24T09:00:09;23.50;87.90
5972;DHT22;3012;49.944;8.454;2023-07-24T09:02:42;23.60;87.70
5972;DHT22;3012;49.944;8.454;2023-07-24T09:05:16;23.60;87.00
5972;DHT22;3012;49.944;8.454;2023-07-24T09:07:46;23.50;86.80
5972;DHT22;3012;49.944;8.454;2023-07-24T09:10:17;23.60;87.20
5972;DHT22;3012;49.944;8.454;2023-07-24T09:12:53;23.50;86.90
5972;DHT22;3012;49.944;8.454;2023-07-24T09:15:24;23.40;86.80
5972;DHT22;3012;49.944;8.454;2023-07-24T09:17:54;23.40;86.70
5972;DHT22;3012;49.944;8.454;2023-07-24T09:20:38;23.30;86.00
5972;DHT22;3012;49.944;8.454;2023-07-24T09:23:10;23.30;87.10
5972;DHT22;3012;49.944;8.454;2023-07-24T09:25:46;23.10;87.10
5972;DHT22;3012;49.944;8.454;2023-07-24T09:28:17;23.30;87.70
5972;DHT22;3012;49.944;8.454;2023-07-24T09:30:52;23.20;88.30
5972;DHT22;3012;49.944;8.454;2023-07-24T09:33:33;23.20;88.20
5972;DHT22;3012;49.944;8.454;2023-07-24T09:36:09;23.20;88.50
5972;DHT22;3012;49.944;8.454;2023-07-24T09:38:41;23.20;88.10
5972;DHT22;3012;49.944;8.454;2023-07-24T09:41:13;23.30;88.20
5972;DHT22;3012;49.944;8.454;2023-07-24T09:43:46;23.40;87.80
5972;DHT22;3012;49.944;8.454;2023-07-24T09:46:18;23.70;88.40
5972;DHT22;3012;49.944;8.454;2023-07-24T09:48:56;23.50;88.60
5972;DHT22;3012;49.944;8.454;2023-07-24T09:51:32;23.60;88.80
5972;DHT22;3012;49.944;8.454;2023-07-24T09:54:09;23.80;88.10
5972;DHT22;3012;49.944;8.454;2023-07-24T09:56:44;23.90;87.10
5972;DHT22;3012;49.944;8.454;2023-07-24T09:59:24;23.90;85.00
5972;DHT22;3012;49.944;8.454;2023-07-24T10:01:57;23.80;84.90
5972;DHT22;3012;49.944;8.454;2023-07-24T10:04:27;23.80;84.70
5972;DHT22;3012;49.944;8.454;2023-07-24T10:06:59;23.80;83.90
5972;DHT22;3012;49.944;8.454;2023-07-24T10:09:29;23.90;84.80
5972;DHT22;3012;49.944;8.454;2023-07-24T10:12:00;24.10;82.30
5972;DHT22;3012;49.944;8.454;2023-07-24T10:14:31;23.80;80.40
5972;DHT22;3012;49.944;8.454;2023-07-24T10:17:02;23.80;80.50
5972;DHT22;3012;49.944;8.454;2023-07-24T10:19:41;23.80;80.90
5972;DHT22;3012;49.944;8.454;2023-07-24T10:22:19;23.80;82.50
5972;DHT22;3012;49.944;8.454;2023-07-24T10:24:55;23.90;83.80
5972;DHT22;3012;49.944;8.454;2023-07-24T10:27:26;23.90;83.20
5972;DHT22;3012;49.944;8.454;2023-07-24T10:30:00;24.00;83.10
5972;DHT22;3012;49.944;8.454;2023-07-24T10:32:49;24.10;83.30
5972;DHT22;3012;49.944;8.454;2023-07-24T10:35:22;24.30;83.20
5972;DHT22;3012;49.944;8.454;2023-07-24T10:38:02;24.40;82.80
5972;DHT22;3012;49.944;8.454;2023-07-24T10:40:32;24.60;80.80
5972;DHT22;3012;49.944;8.454;2023-07-24T10:43:07;24.60;81.00
5972;DHT22;3012;49.944;8.454;2023-07-24T10:45:47;24.70;80.80
5972;DHT22;3012;49.944;8.454;2023-07-24T10:48:19;24.80;81.10
5972;DHT22;3012;49.944;8.454;2023-07-24T10:50:51;25.00;79.10
5972;DHT22;3012;49.944;8.454;2023-07-24T10:53:23;25.00;79.80
5972;DHT22;3012;49.944;8.454;2023-07-24T10:55:55;25.00;78.50
5972;DHT22;3012;49.944;8.454;2023-07-24T10:58:27;25.10;77.80
5972;DHT22;3012;49.944;8.454;2023-07-24T11:00:57;25.10;77.80
5972;DHT22;3012;49.944;8.454;2023-07-24T11:03:28;25.30;78.60
5972;DHT22;3012;49.944;8.454;2023-07-24T11:05:58;25.30;78.10
5972;DHT22;3012;49.944;8.454;2023-07-24T11:08:31;25.20;76.80
5972;DHT22;3012;49.944;8.454;2023-07-24T11:11:04;25.30;78.00
5972;DHT22;3012;49.944;8.454;2023-07-24T11:13:34;25.30;77.50
5972;DHT22;3012;49.944;8.454;2023-07-24T11:16:06;25.30;77.00
5972;DHT22;3012;49.944;8.454;2023-07-24T11:18:45;25.30;76.60
5972;DHT22;3012;49.944;8.454;2023-07-24T11:21:22;25.40;76.90
5972;DHT22;3012;49.944;8.454;2023-07-24T11:23:55;25.30;75.10
5972;DHT22;3012;49.944;8.454;2023-07-24T11:26:26;25.30;74.80
5972;DHT22;3012;49.944;8.454;2023-07-24T11:28:57;25.30;74.10
5972;DHT22;3012;49.944;8.454;2023-07-24T11:31:36;25.30;72.70
5972;DHT22;3012;49.944;8.454;2023-07-24T11:34:08;25.40;72.40
5972;DHT22;3012;49.944;8.454;2023-07-24T11:36:41;25.40;71.50
5972;DHT22;3012;49.944;8.454;2023-07-24T11:39:22;25.40;71.60
5972;DHT22;3012;49.944;8.454;2023-07-24T11:41:53;25.50;70.70
5972;DHT22;3012;49.944;8.454;2023-07-24T11:44:26;25.60;71.10
5972;DHT22;3012;49.944;8.454;2023-07-24T11:47:03;25.70;69.40
5972;DHT22;3012;49.944;8.454;2023-07-24T11:49:34;25.60;68.50
5972;DHT22;3012;49.944;8.454;2023-07-24T11:52:05;25.50;69.80
5972;DHT22;3012;49.944;8.454;2023-07-24T11:54:40;25.50;70.70
5972;DHT22;3012;49.944;8.454;2023-07-24T11:57:15;25.70;70.50
5972;DHT22;3012;49.944;8.454;2023-07-24T11:59:45;25.80;70.10
5972;DHT22;3012;49.944;8.454;2023-07-24T12:02:17;25.80;69.20
5972;DHT22;3012;49.944;8.454;2023-07-24T12:04:54;25.80;70.80
5972;DHT22;3012;49.944;8.454;2023-07-24T12:07:32;25.70;68.50
5972;DHT22;3012;49.944;8.454;2023-07-24T12:10:06;26.00;67.10
5972;DHT22;3012;49.944;8.454;2023-07-24T12:12:41;25.90;66.40
5972;DHT22;3012;49.944;8.454;2023-07-24T12:15:14;25.90;67.60
5972;DHT22;3012;49.944;8.454;2023-07-24T12:17:46;25.90;67.70
5972;DHT22;3012;49.944;8.454;2023-07-24T12:20:16;26.00;67.90
5972;DHT22;3012;49.944;8.454;2023-07-24T12:22:46;26.10;68.20
5972;DHT22;3012;49.944;8.454;2023-07-24T12:25:18;26.10;67.50
5972;DHT22;3012;49.944;8.454;2023-07-24T12:27:50;26.00;67.40
5972;DHT22;3012;49.944;8.454;2023-07-24T12:30:23;26.10;67.10
5972;DHT22;3012;49.944;8.454;2023-07-24T12:33:01;26.30;67.70
5972;DHT22;3012;49.944;8.454;2023-07-24T12:35:31;26.60;66.90
5972;DHT22;3012;49.944;8.454;2023-07-24T12:38:02;26.60;66.80
5972;DHT22;3012;49.944;8.454;2023-07-24T12:40:34;26.90;66.30
5972;DHT22;3012;49.944;8.454;2023-07-24T12:43:04;27.40;66.00
5972;DHT22;3012;49.944;8.454;2023-07-24T12:45:34;27.20;64.70
5972;DHT22;3012;49.944;8.454;2023-07-24T12:48:04;27.10;65.50
5972;DHT22;3012;49.944;8.454;2023-07-24T12:50:35;26.90;65.70
5972;DHT22;3012;49.944;8.454;2023-07-24T12:53:05;26.60;66.00
5972;DHT22;3012;49.944;8.454;2023-07-24T12:55:40;26.40;66.90
5972;DHT22;3012;49.944;8.454;2023-07-24T12:58:10;26.20;67.80
5972;DHT22;3012;49.944;8.454;2023-07-24T13:00:40;26.00;68.60
5972;DHT22;3012;49.944;8.454;2023-07-24T13:03:11;26.10;69.40
5972;DHT22;3012;49.944;8.454;2023-07-24T13:05:42;26.10;69.70
5972;DHT22;3012;49.944;8.454;2023-07-24T13:08:12;26.00;70.20
5972;DHT22;3012;49.944;8.454;2023-07-24T13:10:47;25.90;70.20
5972;DHT22;3012;49.944;8.454;2023-07-24T13:13:18;25.70;70.80
5972;DHT22;3012;49.944;8.454;2023-07-24T13:15:49;25.60;71.20
5972;DHT22;3012;49.944;8.454;2023-07-24T13:18:19;25.60;72.00
5972;DHT22;3012;49.944;8.454;2023-07-24T13:20:56;25.50;71.90
5972;DHT22;3012;49.944;8.454;2023-07-24T13:23:26;25.40;72.40
5972;DHT22;3012;49.944;8.454;2023-07-24T13:25:59;25.30;72.60
5972;DHT22;3012;49.944;8.454;2023-07-24T13:28:29;25.20;72.50
5972;DHT22;3012;49.944;8.454;2023-07-24T13:30:59;25.50;74.00
5972;DHT22;3012;49.944;8.454;2023-07-24T13:33:41;25.10;73.10
5972;DHT22;3012;49.944;8.454;2023-07-24T13:36:12;25.10;73.60
5972;DHT22;3012;49.944;8.454;2023-07-24T13:38:43;25.00;74.70
5972;DHT22;3012;49.944;8.454;2023-07-24T13:41:18;24.70;90.20
5972;DHT22;3012;49.944;8.454;2023-07-24T13:43:50;23.70;96.50
5972;DHT22;3012;49.944;8.454;2023-07-24T13:46:20;22.90;99.90
5972;DHT22;3012;49.944;8.454;2023-07-24T13:48:51;22.50;99.90
5972;DHT22;3012;49.944;8.454;2023-07-24T13:51:21;22.30;99.90
5972;DHT22;3012;49.944;8.454;2023-07-24T13:53:51;22.30;99.90
5972;DHT22;3012;49.944;8.454;2023-07-24T13:56:25;22.50;99.90
5972;DHT22;3012;49.944;8.454;2023-07-24T13:58:57;22.70;99.90
5972;DHT22;3012;49.944;8.454;2023-07-24T14:01:27;23.00;99.90
5972;DHT22;3012;49.944;8.454;2023-07-24T14:03:59;22.80;99.90
5972;DHT22;3012;49.944;8.454;2023-07-24T14:06:31;22.90;99.90
5972;DHT22;3012;49.944;8.454;2023-07-24T14:09:10;22.90;99.90
5972;DHT22;3012;49.944;8.454;2023-07-24T14:11:43;23.10;99.90
5972;DHT22;3012;49.944;8.454;2023-07-24T14:14:17;23.30;99.90
5972;DHT22;3012;49.944;8.454;2023-07-24T14:16:49;23.60;99.90
5972;DHT22;3012;49.944;8.454;2023-07-24T14:19:20;23.90;99.90
5972;DHT22;3012;49.944;8.454;2023-07-24T14:21:52;24.20;99.90
5972;DHT22;3012;49.944;8.454;2023-07-24T14:24:23;24.40;99.90
5972;DHT22;3012;49.944;8.454;2023-07-24T14:26:56;24.60;99.90
5972;DHT22;3012;49.944;8.454;2023-07-24T14:29:26;24.70;99.90
5972;DHT22;3012;49.944;8.454;2023-07-24T14:31:57;24.90;99.90
5972;DHT22;3012;49.944;8.454;2023-07-24T14:34:27;25.00;99.90
5972;DHT22;3012;49.944;8.454;2023-07-24T14:36:57;25.00;99.90
5972;DHT22;3012;49.944;8.454;2023-07-24T14:39:27;25.10;99.90
5972;DHT22;3012;49.944;8.454;2023-07-24T14:41:59;25.20;99.90
5972;DHT22;3012;49.944;8.454;2023-07-24T14:44:29;25.40;99.90
5972;DHT22;3012;49.944;8.454;2023-07-24T14:47:00;25.60;99.90
5972;DHT22;3012;49.944;8.454;2023-07-24T14:49:31;25.70;99.90
5972;DHT22;3012;49.944;8.454;2023-07-24T14:52:01;25.70;99.90
5972;DHT22;3012;49.944;8.454;2023-07-24T14:54:33;25.80;99.90
5972;DHT22;3012;49.944;8.454;2023-07-24T14:57:08;25.90;99.90
5972;DHT22;3012;49.944;8.454;2023-07-24T14:59:52;26.20;99.90
5972;DHT22;3012;49.944;8.454;2023-07-24T15:02:23;26.00;99.90
5972;DHT22;3012;49.944;8.454;2023-07-24T15:04:53;25.90;99.90
5972;DHT22;3012;49.944;8.454;2023-07-24T15:07:25;25.50;99.90
5972;DHT22;3012;49.944;8.454;2023-07-24T15:09:56;25.50;99.90
5972;DHT22;3012;49.944;8.454;2023-07-24T15:12:29;25.30;99.90
5972;DHT22;3012;49.944;8.454;2023-07-24T15:14:59;25.00;99.90
5972;DHT22;3012;49.944;8.454;2023-07-24T15:17:30;24.70;99.90
5972;DHT22;3012;49.944;8.454;2023-07-24T15:20:01;24.40;99.90
5972;DHT22;3012;49.944;8.454;2023-07-24T15:22:32;24.20;99.90
5972;DHT22;3012;49.944;8.454;2023-07-24T15:25:02;24.10;99.90
5972;DHT22;3012;49.944;8.454;2023-07-24T15:27:34;23.80;99.90
5972;DHT22;3012;49.944;8.454;2023-07-24T15:30:07;23.50;99.90
5972;DHT22;3012;49.944;8.454;2023-07-24T15:32:41;23.00;99.90
5972;DHT22;3012;49.944;8.454;2023-07-24T15:35:16;22.60;99.90
5972;DHT22;3012;49.944;8.454;2023-07-24T15:37:54;22.60;99.90
5972;DHT22;3012;49.944;8.454;2023-07-24T15:40:31;22.60;99.90
5972;DHT22;3012;49.944;8.454;2023-07-24T15:43:12;22.60;99.90
5972;DHT22;3012;49.944;8.454;2023-07-24T15:45:44;22.60;99.90
5972;DHT22;3012;49.944;8.454;2023-07-24T15:48:14;22.50;99.90
5972;DHT22;3012;49.944;8.454;2023-07-24T15:50:52;22.40;99.90
5972;DHT22;3012;49.944;8.454;2023-07-24T15:53:22;22.40;99.90
5972;DHT22;3012;49.944;8.454;2023-07-24T15:55:53;22.50;99.90
5972;DHT22;3012;49.944;8.454;2023-07-24T15:58:24;22.40;99.90
5972;DHT22;3012;49.944;8.454;2023-07-24T16:00:55;22.40;99.90
5972;DHT22;3012;49.944;8.454;2023-07-24T16:03:26;22.50;99.90
5972;DHT22;3012;49.944;8.454;2023-07-24T16:05:57;22.50;99.90
5972;DHT22;3012;49.944;8.454;2023-07-24T16:08:28;22.50;99.90
5972;DHT22;3012;49.944;8.454;2023-07-24T16:11:00;22.50;99.90
5972;DHT22;3012;49.944;8.454;2023-07-24T16:13:32;22.60;99.90
5972;DHT22;3012;49.944;8.454;2023-07-24T16:16:03;22.60;99.90
5972;DHT22;3012;49.944;8.454;2023-07-24T16:18:33;22.70;99.90
5972;DHT22;3012;49.944;8.454;2023-07-24T16:21:04;22.70;99.90
5972;DHT22;3012;49.944;8.454;2023-07-24T16:23:34;22.70;99.90
5972;DHT22;3012;49.944;8.454;2023-07-24T16:26:05;22.80;99.90
5972;DHT22;3012;49.944;8.454;2023-07-24T16:28:37;22.80;99.90
5972;DHT22;3012;49.944;8.454;2023-07-24T16:31:07;22.80;99.90
5972;DHT22;3012;49.944;8.454;2023-07-24T16:33:38;22.80;99.90
5972;DHT22;3012;49.944;8.454;2023-07-24T16:36:08;22.80;99.90